sensor_id;sensor_type;location;lat;lon;timestamp;P1;durP1;ratioP1;P2;durP2;ratioP2
14342;SDS011;7255;53.596;9.960;2022-10-31T00:00:51;51.72;;;32.63;;
14342;SDS011;7255;53.596;9.960;2022-10-31T00:03:17;46.10;;;29.73;;
14342;SDS011;7255;53.596;9.960;2022-10-31T00:05:44;46.67;;;31.58;;
14342;SDS011;7255;53.596;9.960;2022-10-31T00:08:12;49.63;;;31.85;;
14342;SDS011;7255;53.596;9.960;2022-10-31T00:10:40;47.40;;;31.10;;
14342;SDS011;7255;53.596;9.960;2022-10-31T00:13:08;46.63;;;31.40;;
14342;SDS011;7255;53.596;9.960;2022-10-31T00:15:35;57.83;;;31.50;;
14342;SDS011;7255;53.596;9.960;2022-10-31T00:18:02;50.10;;;32.45;;
14342;SDS011;7255;53.596;9.960;2022-10-31T00:20:29;54.20;;;33.28;;
14342;SDS011;7255;53.596;9.960;2022-10-31T00:22:56;53.03;;;33.08;;
14342;SDS011;7255;53.596;9.960;2022-10-31T00:25:23;44.42;;;29.17;;
14342;SDS011;7255;53.596;9.960;2022-10-31T00:27:51;56.10;;;33.88;;
14342;SDS011;7255;53.596;9.960;2022-10-31T00:30:17;61.58;;;34.00;;
14342;SDS011;7255;53.596;9.960;2022-10-31T00:32:43;55.45;;;32.42;;
14342;SDS011;7255;53.596;9.960;2022-10-31T00:35:10;54.55;;;33.33;;
14342;SDS011;7255;53.596;9.960;2022-10-31T00:37:36;57.25;;;32.40;;
14342;SDS011;7255;53.596;9.960;2022-10-31T00:40:02;58.67;;;35.40;;
14342;SDS011;7255;53.596;9.960;2022-10-31T00:42:29;57.08;;;36.67;;
14342;SDS011;7255;53.596;9.960;2022-10-31T00:44:57;71.47;;;37.13;;
14342;SDS011;7255;53.596;9.960;2022-10-31T00:47:23;60.85;;;35.03;;
14342;SDS011;7255;53.596;9.960;2022-10-31T00:49:50;62.47;;;34.88;;
14342;SDS011;7255;53.596;9.960;2022-10-31T00:52:16;62.25;;;35.17;;
14342;SDS011;7255;53.596;9.960;2022-10-31T00:54:42;55.55;;;33.80;;
14342;SDS011;7255;53.596;9.960;2022-10-31T00:57:08;60.25;;;35.63;;
14342;SDS011;7255;53.596;9.960;2022-10-31T00:59:35;68.75;;;39.03;;
14342;SDS011;7255;53.596;9.960;2022-10-31T01:02:02;77.47;;;40.28;;
14342;SDS011;7255;53.596;9.960;2022-10-31T01:04:29;70.87;;;40.20;;
14342;SDS011;7255;53.596;9.960;2022-10-31T01:06:55;74.53;;;41.83;;
14342;SDS011;7255;53.596;9.960;2022-10-31T01:09:21;75.47;;;42.13;;
14342;SDS011;7255;53.596;9.960;2022-10-31T01:11:48;67.57;;;39.90;;
14342;SDS011;7255;53.596;9.960;2022-10-31T01:14:14;69.78;;;41.25;;
14342;SDS011;7255;53.596;9.960;2022-10-31T01:16:40;78.72;;;44.38;;
14342;SDS011;7255;53.596;9.960;2022-10-31T01:19:08;79.50;;;44.28;;
14342;SDS011;7255;53.596;9.960;2022-10-31T01:21:34;74.97;;;42.65;;
14342;SDS011;7255;53.596;9.960;2022-10-31T01:24:01;84.45;;;47.05;;
14342;SDS011;7255;53.596;9.960;2022-10-31T01:26:28;81.40;;;47.33;;
14342;SDS011;7255;53.596;9.960;2022-10-31T01:28:56;79.87;;;45.28;;
14342;SDS011;7255;53.596;9.960;2022-10-31T01:31:25;86.72;;;46.80;;
14342;SDS011;7255;53.596;9.960;2022-10-31T01:33:53;84.65;;;48.65;;
14342;SDS011;7255;53.596;9.960;2022-10-31T01:36:21;72.65;;;46.15;;
14342;SDS011;7255;53.596;9.960;2022-10-31T01:38:50;84.10;;;46.58;;
14342;SDS011;7255;53.596;9.960;2022-10-31T01:41:18;87.75;;;47.47;;
14342;SDS011;7255;53.596;9.960;2022-10-31T01:43:48;80.60;;;47.20;;
14342;SDS011;7255;53.596;9.960;2022-10-31T01:46:17;76.15;;;44.45;;
14342;SDS011;7255;53.596;9.960;2022-10-31T01:48:48;85.38;;;46.67;;
14342;SDS011;7255;53.596;9.960;2022-10-31T01:51:15;79.55;;;44.47;;
14342;SDS011;7255;53.596;9.960;2022-10-31T01:53:46;84.40;;;47.13;;
14342;SDS011;7255;53.596;9.960;2022-10-31T01:56:13;87.40;;;48.50;;
14342;SDS011;7255;53.596;9.960;2022-10-31T01:58:42;87.50;;;48.58;;
14342;SDS011;7255;53.596;9.960;2022-10-31T02:01:11;84.82;;;45.97;;
14342;SDS011;7255;53.596;9.960;2022-10-31T02:03:40;86.80;;;46.15;;
14342;SDS011;7255;53.596;9.960;2022-10-31T02:06:08;86.37;;;49.70;;
14342;SDS011;7255;53.596;9.960;2022-10-31T02:08:45;88.22;;;47.03;;
14342;SDS011;7255;53.596;9.960;2022-10-31T02:11:13;95.45;;;48.50;;
14342;SDS011;7255;53.596;9.960;2022-10-31T02:13:40;79.55;;;45.50;;
14342;SDS011;7255;53.596;9.960;2022-10-31T02:16:09;88.95;;;46.78;;
14342;SDS011;7255;53.596;9.960;2022-10-31T02:18:35;78.20;;;43.80;;
14342;SDS011;7255;53.596;9.960;2022-10-31T02:21:03;77.00;;;42.72;;
14342;SDS011;7255;53.596;9.960;2022-10-31T02:23:52;79.07;;;44.33;;
14342;SDS011;7255;53.596;9.960;2022-10-31T02:26:54;82.28;;;43.97;;
14342;SDS011;7255;53.596;9.960;2022-10-31T02:32:28;78.60;;;42.75;;
14342;SDS011;7255;53.596;9.960;2022-10-31T02:35:03;82.62;;;45.67;;
14342;SDS011;7255;53.596;9.960;2022-10-31T02:37:41;84.95;;;46.22;;
14342;SDS011;7255;53.596;9.960;2022-10-31T02:40:13;81.40;;;43.40;;
14342;SDS011;7255;53.596;9.960;2022-10-31T02:42:45;85.18;;;46.33;;
14342;SDS011;7255;53.596;9.960;2022-10-31T02:45:19;84.25;;;46.03;;
14342;SDS011;7255;53.596;9.960;2022-10-31T02:47:54;87.72;;;47.58;;
14342;SDS011;7255;53.596;9.960;2022-10-31T02:50:26;91.18;;;47.50;;
14342;SDS011;7255;53.596;9.960;2022-10-31T02:52:55;95.32;;;46.08;;
14342;SDS011;7255;53.596;9.960;2022-10-31T02:58:14;84.13;;;45.33;;
14342;SDS011;7255;53.596;9.960;2022-10-31T03:00:45;87.43;;;45.30;;
14342;SDS011;7255;53.596;9.960;2022-10-31T03:03:21;89.70;;;46.80;;
14342;SDS011;7255;53.596;9.960;2022-10-31T03:05:57;83.78;;;45.45;;
14342;SDS011;7255;53.596;9.960;2022-10-31T03:08:30;84.15;;;46.85;;
14342;SDS011;7255;53.596;9.960;2022-10-31T03:11:01;85.22;;;46.70;;
14342;SDS011;7255;53.596;9.960;2022-10-31T03:13:32;95.12;;;47.78;;
14342;SDS011;7255;53.596;9.960;2022-10-31T03:16:04;90.32;;;45.40;;
14342;SDS011;7255;53.596;9.960;2022-10-31T03:18:39;95.05;;;46.63;;
14342;SDS011;7255;53.596;9.960;2022-10-31T03:21:07;93.00;;;48.85;;
14342;SDS011;7255;53.596;9.960;2022-10-31T03:23:37;85.00;;;46.80;;
14342;SDS011;7255;53.596;9.960;2022-10-31T03:26:06;95.87;;;46.33;;
14342;SDS011;7255;53.596;9.960;2022-10-31T03:28:36;89.85;;;47.65;;
14342;SDS011;7255;53.596;9.960;2022-10-31T03:31:06;103.60;;;47.97;;
14342;SDS011;7255;53.596;9.960;2022-10-31T03:33:35;89.60;;;45.40;;
14342;SDS011;7255;53.596;9.960;2022-10-31T03:36:05;88.50;;;45.25;;
14342;SDS011;7255;53.596;9.960;2022-10-31T03:38:36;92.07;;;47.13;;
14342;SDS011;7255;53.596;9.960;2022-10-31T03:41:05;92.43;;;48.20;;
14342;SDS011;7255;53.596;9.960;2022-10-31T03:43:38;85.22;;;46.17;;
14342;SDS011;7255;53.596;9.960;2022-10-31T03:46:08;96.05;;;45.88;;
14342;SDS011;7255;53.596;9.960;2022-10-31T03:48:35;88.07;;;46.85;;
14342;SDS011;7255;53.596;9.960;2022-10-31T03:51:03;94.32;;;47.10;;
14342;SDS011;7255;53.596;9.960;2022-10-31T03:53:38;96.75;;;46.83;;
14342;SDS011;7255;53.596;9.960;2022-10-31T03:56:12;96.40;;;49.80;;
14342;SDS011;7255;53.596;9.960;2022-10-31T03:58:45;98.57;;;50.05;;
14342;SDS011;7255;53.596;9.960;2022-10-31T04:01:15;104.55;;;50.80;;
14342;SDS011;7255;53.596;9.960;2022-10-31T04:03:44;99.60;;;49.58;;
14342;SDS011;7255;53.596;9.960;2022-10-31T04:06:13;107.20;;;49.70;;
14342;SDS011;7255;53.596;9.960;2022-10-31T04:08:42;107.68;;;50.90;;
14342;SDS011;7255;53.596;9.960;2022-10-31T04:11:13;108.22;;;51.85;;
14342;SDS011;7255;53.596;9.960;2022-10-31T04:13:43;97.95;;;48.63;;
14342;SDS011;7255;53.596;9.960;2022-10-31T04:16:11;101.32;;;48.80;;
14342;SDS011;7255;53.596;9.960;2022-10-31T04:18:40;112.07;;;50.25;;
14342;SDS011;7255;53.596;9.960;2022-10-31T04:21:07;96.68;;;48.83;;
14342;SDS011;7255;53.596;9.960;2022-10-31T04:23:35;107.25;;;50.15;;
14342;SDS011;7255;53.596;9.960;2022-10-31T04:26:02;101.15;;;49.35;;
14342;SDS011;7255;53.596;9.960;2022-10-31T04:28:29;112.53;;;50.10;;
14342;SDS011;7255;53.596;9.960;2022-10-31T04:30:55;104.12;;;49.22;;
14342;SDS011;7255;53.596;9.960;2022-10-31T04:33:21;103.12;;;50.38;;
14342;SDS011;7255;53.596;9.960;2022-10-31T04:35:48;106.82;;;49.25;;
14342;SDS011;7255;53.596;9.960;2022-10-31T04:38:14;113.97;;;49.17;;
14342;SDS011;7255;53.596;9.960;2022-10-31T04:40:42;111.82;;;50.55;;
14342;SDS011;7255;53.596;9.960;2022-10-31T04:43:08;100.25;;;48.87;;
14342;SDS011;7255;53.596;9.960;2022-10-31T04:45:34;116.55;;;51.33;;
14342;SDS011;7255;53.596;9.960;2022-10-31T04:48:00;109.82;;;49.95;;
14342;SDS011;7255;53.596;9.960;2022-10-31T04:50:27;112.35;;;50.05;;
14342;SDS011;7255;53.596;9.960;2022-10-31T04:52:53;112.25;;;49.22;;
14342;SDS011;7255;53.596;9.960;2022-10-31T04:55:19;101.72;;;48.80;;
14342;SDS011;7255;53.596;9.960;2022-10-31T04:57:47;114.05;;;47.60;;
14342;SDS011;7255;53.596;9.960;2022-10-31T05:00:16;104.60;;;46.97;;
14342;SDS011;7255;53.596;9.960;2022-10-31T05:02:44;108.53;;;46.25;;
14342;SDS011;7255;53.596;9.960;2022-10-31T05:05:10;107.63;;;48.00;;
14342;SDS011;7255;53.596;9.960;2022-10-31T05:07:38;114.05;;;45.60;;
14342;SDS011;7255;53.596;9.960;2022-10-31T05:10:05;113.40;;;46.47;;
14342;SDS011;7255;53.596;9.960;2022-10-31T05:12:32;103.18;;;43.80;;
14342;SDS011;7255;53.596;9.960;2022-10-31T05:15:00;113.37;;;45.60;;
14342;SDS011;7255;53.596;9.960;2022-10-31T05:17:26;111.55;;;46.33;;
14342;SDS011;7255;53.596;9.960;2022-10-31T05:19:52;104.38;;;44.08;;
14342;SDS011;7255;53.596;9.960;2022-10-31T05:22:19;109.07;;;44.13;;
14342;SDS011;7255;53.596;9.960;2022-10-31T05:24:45;102.00;;;44.35;;
14342;SDS011;7255;53.596;9.960;2022-10-31T05:27:11;109.70;;;45.03;;
14342;SDS011;7255;53.596;9.960;2022-10-31T05:29:38;103.28;;;42.95;;
14342;SDS011;7255;53.596;9.960;2022-10-31T05:32:05;107.93;;;44.72;;
14342;SDS011;7255;53.596;9.960;2022-10-31T05:34:32;104.57;;;43.03;;
14342;SDS011;7255;53.596;9.960;2022-10-31T05:36:58;97.47;;;43.35;;
14342;SDS011;7255;53.596;9.960;2022-10-31T05:39:24;99.20;;;40.58;;
14342;SDS011;7255;53.596;9.960;2022-10-31T05:41:51;110.07;;;43.33;;
14342;SDS011;7255;53.596;9.960;2022-10-31T05:44:17;111.55;;;43.92;;
14342;SDS011;7255;53.596;9.960;2022-10-31T05:46:43;103.28;;;43.90;;
14342;SDS011;7255;53.596;9.960;2022-10-31T05:49:13;105.00;;;41.40;;
14342;SDS011;7255;53.596;9.960;2022-10-31T05:51:39;110.22;;;41.47;;
14342;SDS011;7255;53.596;9.960;2022-10-31T05:54:05;99.65;;;40.97;;
14342;SDS011;7255;53.596;9.960;2022-10-31T05:56:32;100.55;;;39.15;;
14342;SDS011;7255;53.596;9.960;2022-10-31T05:58:58;114.57;;;41.30;;
14342;SDS011;7255;53.596;9.960;2022-10-31T06:01:24;100.10;;;41.72;;
14342;SDS011;7255;53.596;9.960;2022-10-31T06:03:50;122.40;;;41.70;;
14342;SDS011;7255;53.596;9.960;2022-10-31T06:06:18;105.82;;;40.20;;
14342;SDS011;7255;53.596;9.960;2022-10-31T06:08:44;104.87;;;41.00;;
14342;SDS011;7255;53.596;9.960;2022-10-31T06:11:11;110.43;;;39.72;;
14342;SDS011;7255;53.596;9.960;2022-10-31T06:13:37;110.43;;;39.53;;
14342;SDS011;7255;53.596;9.960;2022-10-31T06:16:03;107.72;;;38.35;;
14342;SDS011;7255;53.596;9.960;2022-10-31T06:18:30;118.55;;;40.45;;
14342;SDS011;7255;53.596;9.960;2022-10-31T06:20:56;106.10;;;38.72;;
14342;SDS011;7255;53.596;9.960;2022-10-31T06:23:24;91.90;;;36.15;;
14342;SDS011;7255;53.596;9.960;2022-10-31T06:25:50;114.20;;;39.92;;
14342;SDS011;7255;53.596;9.960;2022-10-31T06:28:17;106.28;;;36.97;;
14342;SDS011;7255;53.596;9.960;2022-10-31T06:30:43;94.22;;;37.53;;
14342;SDS011;7255;53.596;9.960;2022-10-31T06:33:09;98.53;;;38.20;;
14342;SDS011;7255;53.596;9.960;2022-10-31T06:35:36;85.68;;;34.97;;
14342;SDS011;7255;53.596;9.960;2022-10-31T06:38:02;94.82;;;37.75;;
14342;SDS011;7255;53.596;9.960;2022-10-31T06:40:30;89.57;;;37.33;;
14342;SDS011;7255;53.596;9.960;2022-10-31T06:42:57;81.43;;;35.53;;
14342;SDS011;7255;53.596;9.960;2022-10-31T06:45:23;93.07;;;36.25;;
14342;SDS011;7255;53.596;9.960;2022-10-31T06:47:50;88.15;;;34.70;;
14342;SDS011;7255;53.596;9.960;2022-10-31T06:50:17;87.57;;;35.92;;
14342;SDS011;7255;53.596;9.960;2022-10-31T06:52:43;101.07;;;36.95;;
14342;SDS011;7255;53.596;9.960;2022-10-31T06:55:16;87.50;;;35.13;;
14342;SDS011;7255;53.596;9.960;2022-10-31T06:57:43;87.90;;;33.42;;
14342;SDS011;7255;53.596;9.960;2022-10-31T07:00:15;87.05;;;36.80;;
14342;SDS011;7255;53.596;9.960;2022-10-31T07:02:42;78.78;;;35.33;;
14342;SDS011;7255;53.596;9.960;2022-10-31T07:05:08;83.75;;;35.67;;
14342;SDS011;7255;53.596;9.960;2022-10-31T07:07:34;90.20;;;36.38;;
14342;SDS011;7255;53.596;9.960;2022-10-31T07:10:01;100.57;;;37.83;;
14342;SDS011;7255;53.596;9.960;2022-10-31T07:12:27;88.35;;;37.20;;
14342;SDS011;7255;53.596;9.960;2022-10-31T07:14:54;95.12;;;37.63;;
14342;SDS011;7255;53.596;9.960;2022-10-31T07:17:22;90.32;;;37.42;;
14342;SDS011;7255;53.596;9.960;2022-10-31T07:19:49;84.37;;;38.63;;
14342;SDS011;7255;53.596;9.960;2022-10-31T07:22:15;98.47;;;38.10;;
14342;SDS011;7255;53.596;9.960;2022-10-31T07:24:41;78.85;;;37.53;;
14342;SDS011;7255;53.596;9.960;2022-10-31T07:27:08;85.65;;;35.70;;
14342;SDS011;7255;53.596;9.960;2022-10-31T07:29:34;86.18;;;37.22;;
14342;SDS011;7255;53.596;9.960;2022-10-31T07:32:02;80.60;;;33.63;;
14342;SDS011;7255;53.596;9.960;2022-10-31T07:34:28;68.25;;;32.58;;
14342;SDS011;7255;53.596;9.960;2022-10-31T07:36:54;97.10;;;32.92;;
14342;SDS011;7255;53.596;9.960;2022-10-31T07:39:21;73.53;;;31.50;;
14342;SDS011;7255;53.596;9.960;2022-10-31T07:41:47;66.22;;;32.42;;
14342;SDS011;7255;53.596;9.960;2022-10-31T07:44:13;61.22;;;30.40;;
14342;SDS011;7255;53.596;9.960;2022-10-31T07:46:39;75.00;;;29.98;;
14342;SDS011;7255;53.596;9.960;2022-10-31T07:49:07;60.30;;;29.55;;
14342;SDS011;7255;53.596;9.960;2022-10-31T07:51:33;63.63;;;30.92;;
14342;SDS011;7255;53.596;9.960;2022-10-31T07:54:00;75.10;;;28.90;;
14342;SDS011;7255;53.596;9.960;2022-10-31T07:56:26;59.25;;;27.77;;
14342;SDS011;7255;53.596;9.960;2022-10-31T07:58:52;56.60;;;27.10;;
14342;SDS011;7255;53.596;9.960;2022-10-31T08:01:19;49.35;;;25.60;;
14342;SDS011;7255;53.596;9.960;2022-10-31T08:03:45;50.10;;;25.30;;
14342;SDS011;7255;53.596;9.960;2022-10-31T08:06:12;59.35;;;28.80;;
14342;SDS011;7255;53.596;9.960;2022-10-31T08:08:39;52.58;;;25.92;;
14342;SDS011;7255;53.596;9.960;2022-10-31T08:11:05;44.05;;;24.30;;
14342;SDS011;7255;53.596;9.960;2022-10-31T08:13:31;47.40;;;24.87;;
14342;SDS011;7255;53.596;9.960;2022-10-31T08:15:58;47.38;;;24.17;;
14342;SDS011;7255;53.596;9.960;2022-10-31T08:18:28;57.05;;;24.27;;
14342;SDS011;7255;53.596;9.960;2022-10-31T08:20:55;42.17;;;23.23;;
14342;SDS011;7255;53.596;9.960;2022-10-31T08:23:22;45.50;;;24.12;;
14342;SDS011;7255;53.596;9.960;2022-10-31T08:25:49;47.75;;;23.30;;
14342;SDS011;7255;53.596;9.960;2022-10-31T08:28:15;64.45;;;22.73;;
14342;SDS011;7255;53.596;9.960;2022-10-31T08:30:41;66.95;;;24.45;;
14342;SDS011;7255;53.596;9.960;2022-10-31T08:33:09;51.08;;;22.48;;
14342;SDS011;7255;53.596;9.960;2022-10-31T08:35:36;49.83;;;24.33;;
14342;SDS011;7255;53.596;9.960;2022-10-31T08:38:03;51.20;;;24.25;;
14342;SDS011;7255;53.596;9.960;2022-10-31T08:40:31;38.22;;;22.77;;
14342;SDS011;7255;53.596;9.960;2022-10-31T08:42:58;37.50;;;21.65;;
14342;SDS011;7255;53.596;9.960;2022-10-31T08:45:26;41.22;;;23.35;;
14342;SDS011;7255;53.596;9.960;2022-10-31T08:47:56;43.38;;;24.05;;
14342;SDS011;7255;53.596;9.960;2022-10-31T08:50:23;43.05;;;23.70;;
14342;SDS011;7255;53.596;9.960;2022-10-31T08:52:49;36.30;;;23.20;;
14342;SDS011;7255;53.596;9.960;2022-10-31T08:55:15;39.33;;;21.25;;
14342;SDS011;7255;53.596;9.960;2022-10-31T08:57:43;36.33;;;22.35;;
14342;SDS011;7255;53.596;9.960;2022-10-31T09:00:10;34.53;;;21.73;;
14342;SDS011;7255;53.596;9.960;2022-10-31T09:02:36;34.45;;;21.62;;
14342;SDS011;7255;53.596;9.960;2022-10-31T09:05:04;37.03;;;21.25;;
14342;SDS011;7255;53.596;9.960;2022-10-31T09:07:30;36.70;;;21.08;;
14342;SDS011;7255;53.596;9.960;2022-10-31T09:09:56;31.65;;;20.80;;
14342;SDS011;7255;53.596;9.960;2022-10-31T09:12:23;40.78;;;21.67;;
14342;SDS011;7255;53.596;9.960;2022-10-31T09:14:51;35.42;;;22.17;;
14342;SDS011;7255;53.596;9.960;2022-10-31T09:17:17;33.05;;;21.48;;
14342;SDS011;7255;53.596;9.960;2022-10-31T09:19:44;33.70;;;21.30;;
14342;SDS011;7255;53.596;9.960;2022-10-31T09:22:10;35.55;;;21.17;;
14342;SDS011;7255;53.596;9.960;2022-10-31T09:24:36;33.28;;;20.20;;
14342;SDS011;7255;53.596;9.960;2022-10-31T09:27:02;32.50;;;20.88;;
14342;SDS011;7255;53.596;9.960;2022-10-31T09:29:29;35.30;;;18.80;;
14342;SDS011;7255;53.596;9.960;2022-10-31T09:31:57;38.28;;;19.77;;
14342;SDS011;7255;53.596;9.960;2022-10-31T09:34:23;31.50;;;19.12;;
14342;SDS011;7255;53.596;9.960;2022-10-31T09:36:49;34.40;;;20.90;;
14342;SDS011;7255;53.596;9.960;2022-10-31T09:39:15;26.80;;;19.15;;
14342;SDS011;7255;53.596;9.960;2022-10-31T09:41:48;31.75;;;18.08;;
14342;SDS011;7255;53.596;9.960;2022-10-31T09:44:34;25.23;;;18.45;;
14342;SDS011;7255;53.596;9.960;2022-10-31T09:47:12;28.90;;;18.35;;
14342;SDS011;7255;53.596;9.960;2022-10-31T09:52:33;31.83;;;18.80;;
14342;SDS011;7255;53.596;9.960;2022-10-31T09:55:02;28.98;;;18.40;;
14342;SDS011;7255;53.596;9.960;2022-10-31T09:57:32;34.00;;;21.27;;
14342;SDS011;7255;53.596;9.960;2022-10-31T10:00:03;30.55;;;19.45;;
14342;SDS011;7255;53.596;9.960;2022-10-31T10:02:33;29.80;;;19.62;;
14342;SDS011;7255;53.596;9.960;2022-10-31T10:05:04;28.83;;;18.70;;
14342;SDS011;7255;53.596;9.960;2022-10-31T10:07:35;29.90;;;18.45;;
14342;SDS011;7255;53.596;9.960;2022-10-31T10:10:13;33.35;;;17.58;;
14342;SDS011;7255;53.596;9.960;2022-10-31T10:12:51;27.05;;;16.87;;
14342;SDS011;7255;53.596;9.960;2022-10-31T10:15:37;26.23;;;15.77;;
14342;SDS011;7255;53.596;9.960;2022-10-31T10:18:25;31.30;;;16.40;;
14342;SDS011;7255;53.596;9.960;2022-10-31T10:21:02;22.85;;;15.38;;
14342;SDS011;7255;53.596;9.960;2022-10-31T10:23:41;27.50;;;18.17;;
14342;SDS011;7255;53.596;9.960;2022-10-31T10:26:19;25.45;;;17.20;;
14342;SDS011;7255;53.596;9.960;2022-10-31T10:28:47;20.58;;;15.93;;
14342;SDS011;7255;53.596;9.960;2022-10-31T10:31:18;21.08;;;15.80;;
14342;SDS011;7255;53.596;9.960;2022-10-31T10:33:54;23.58;;;16.00;;
14342;SDS011;7255;53.596;9.960;2022-10-31T10:36:27;19.52;;;14.90;;
14342;SDS011;7255;53.596;9.960;2022-10-31T10:39:02;20.27;;;14.73;;
14342;SDS011;7255;53.596;9.960;2022-10-31T10:41:31;18.98;;;13.75;;
14342;SDS011;7255;53.596;9.960;2022-10-31T10:43:58;20.62;;;14.18;;
14342;SDS011;7255;53.596;9.960;2022-10-31T10:46:25;22.55;;;13.68;;
14342;SDS011;7255;53.596;9.960;2022-10-31T10:49:17;20.55;;;13.10;;
14342;SDS011;7255;53.596;9.960;2022-10-31T10:51:46;19.92;;;13.65;;
14342;SDS011;7255;53.596;9.960;2022-10-31T10:54:22;16.52;;;13.38;;
14342;SDS011;7255;53.596;9.960;2022-10-31T10:57:09;19.00;;;13.60;;
14342;SDS011;7255;53.596;9.960;2022-10-31T10:59:42;22.67;;;13.02;;
14342;SDS011;7255;53.596;9.960;2022-10-31T11:02:15;21.37;;;13.75;;
14342;SDS011;7255;53.596;9.960;2022-10-31T11:04:44;22.62;;;14.77;;
14342;SDS011;7255;53.596;9.960;2022-10-31T11:07:13;20.33;;;13.77;;
14342;SDS011;7255;53.596;9.960;2022-10-31T11:09:39;23.77;;;13.00;;
14342;SDS011;7255;53.596;9.960;2022-10-31T11:12:07;21.58;;;13.20;;
14342;SDS011;7255;53.596;9.960;2022-10-31T11:14:35;16.12;;;11.70;;
14342;SDS011;7255;53.596;9.960;2022-10-31T11:17:14;20.88;;;13.07;;
14342;SDS011;7255;53.596;9.960;2022-10-31T11:19:46;15.43;;;12.13;;
14342;SDS011;7255;53.596;9.960;2022-10-31T11:22:14;18.73;;;11.85;;
14342;SDS011;7255;53.596;9.960;2022-10-31T11:24:42;15.75;;;11.40;;
14342;SDS011;7255;53.596;9.960;2022-10-31T11:27:13;14.55;;;10.80;;
14342;SDS011;7255;53.596;9.960;2022-10-31T11:29:41;16.50;;;12.02;;
14342;SDS011;7255;53.596;9.960;2022-10-31T11:32:07;17.48;;;10.82;;
14342;SDS011;7255;53.596;9.960;2022-10-31T11:34:44;14.10;;;10.57;;
14342;SDS011;7255;53.596;9.960;2022-10-31T11:37:15;13.32;;;10.15;;
14342;SDS011;7255;53.596;9.960;2022-10-31T11:39:45;16.98;;;10.27;;
14342;SDS011;7255;53.596;9.960;2022-10-31T11:42:18;14.00;;;10.35;;
14342;SDS011;7255;53.596;9.960;2022-10-31T11:44:46;14.55;;;9.38;;
14342;SDS011;7255;53.596;9.960;2022-10-31T11:47:13;13.52;;;11.15;;
14342;SDS011;7255;53.596;9.960;2022-10-31T11:49:43;13.50;;;10.63;;
14342;SDS011;7255;53.596;9.960;2022-10-31T11:52:16;14.48;;;11.65;;
14342;SDS011;7255;53.596;9.960;2022-10-31T11:54:50;14.35;;;11.85;;
14342;SDS011;7255;53.596;9.960;2022-10-31T11:57:27;15.52;;;10.48;;
14342;SDS011;7255;53.596;9.960;2022-10-31T11:59:55;15.32;;;12.70;;
14342;SDS011;7255;53.596;9.960;2022-10-31T12:02:23;17.30;;;12.52;;
14342;SDS011;7255;53.596;9.960;2022-10-31T12:04:53;14.55;;;12.32;;
14342;SDS011;7255;53.596;9.960;2022-10-31T12:07:27;18.15;;;14.82;;
14342;SDS011;7255;53.596;9.960;2022-10-31T12:09:53;18.98;;;15.55;;
14342;SDS011;7255;53.596;9.960;2022-10-31T12:12:33;20.90;;;15.93;;
14342;SDS011;7255;53.596;9.960;2022-10-31T12:15:13;23.48;;;18.58;;
14342;SDS011;7255;53.596;9.960;2022-10-31T12:17:53;27.05;;;20.50;;
14342;SDS011;7255;53.596;9.960;2022-10-31T12:20:32;27.48;;;20.02;;
14342;SDS011;7255;53.596;9.960;2022-10-31T12:23:09;23.70;;;20.90;;
14342;SDS011;7255;53.596;9.960;2022-10-31T12:25:44;27.67;;;21.00;;
14342;SDS011;7255;53.596;9.960;2022-10-31T12:28:30;25.37;;;20.52;;
14342;SDS011;7255;53.596;9.960;2022-10-31T12:31:19;30.90;;;23.45;;
14342;SDS011;7255;53.596;9.960;2022-10-31T12:33:58;28.73;;;21.70;;
14342;SDS011;7255;53.596;9.960;2022-10-31T12:36:40;28.67;;;22.27;;
14342;SDS011;7255;53.596;9.960;2022-10-31T12:39:18;26.87;;;21.02;;
14342;SDS011;7255;53.596;9.960;2022-10-31T12:41:57;31.85;;;22.37;;
14342;SDS011;7255;53.596;9.960;2022-10-31T12:44:52;32.53;;;22.33;;
14342;SDS011;7255;53.596;9.960;2022-10-31T12:47:35;27.37;;;20.02;;
14342;SDS011;7255;53.596;9.960;2022-10-31T12:50:15;30.73;;;20.45;;
14342;SDS011;7255;53.596;9.960;2022-10-31T12:52:53;30.37;;;21.70;;
14342;SDS011;7255;53.596;9.960;2022-10-31T12:55:31;28.40;;;19.90;;
14342;SDS011;7255;53.596;9.960;2022-10-31T12:58:07;29.05;;;21.50;;
14342;SDS011;7255;53.596;9.960;2022-10-31T13:00:41;31.23;;;21.27;;
14342;SDS011;7255;53.596;9.960;2022-10-31T13:03:18;27.85;;;21.70;;
14342;SDS011;7255;53.596;9.960;2022-10-31T13:05:51;33.42;;;22.75;;
14342;SDS011;7255;53.596;9.960;2022-10-31T13:08:22;30.85;;;22.67;;
14342;SDS011;7255;53.596;9.960;2022-10-31T13:10:56;32.38;;;22.62;;
14342;SDS011;7255;53.596;9.960;2022-10-31T13:13:31;33.05;;;24.15;;
14342;SDS011;7255;53.596;9.960;2022-10-31T13:16:03;37.83;;;25.98;;
14342;SDS011;7255;53.596;9.960;2022-10-31T13:18:38;33.70;;;22.67;;
14342;SDS011;7255;53.596;9.960;2022-10-31T13:21:09;32.05;;;21.77;;
14342;SDS011;7255;53.596;9.960;2022-10-31T13:23:39;33.70;;;23.65;;
14342;SDS011;7255;53.596;9.960;2022-10-31T13:26:09;32.95;;;23.83;;
14342;SDS011;7255;53.596;9.960;2022-10-31T13:28:40;29.95;;;21.70;;
14342;SDS011;7255;53.596;9.960;2022-10-31T13:31:10;34.35;;;24.25;;
14342;SDS011;7255;53.596;9.960;2022-10-31T13:33:38;31.65;;;23.38;;
14342;SDS011;7255;53.596;9.960;2022-10-31T13:36:10;29.00;;;22.08;;
14342;SDS011;7255;53.596;9.960;2022-10-31T13:38:46;29.58;;;22.23;;
14342;SDS011;7255;53.596;9.960;2022-10-31T13:41:22;33.10;;;21.55;;
14342;SDS011;7255;53.596;9.960;2022-10-31T13:43:59;26.65;;;21.25;;
14342;SDS011;7255;53.596;9.960;2022-10-31T13:46:36;25.37;;;20.52;;
14342;SDS011;7255;53.596;9.960;2022-10-31T13:49:04;26.48;;;21.40;;
14342;SDS011;7255;53.596;9.960;2022-10-31T13:51:51;25.90;;;18.42;;
14342;SDS011;7255;53.596;9.960;2022-10-31T13:54:22;22.27;;;19.00;;
14342;SDS011;7255;53.596;9.960;2022-10-31T13:56:51;25.35;;;18.98;;
14342;SDS011;7255;53.596;9.960;2022-10-31T13:59:19;24.75;;;18.15;;
14342;SDS011;7255;53.596;9.960;2022-10-31T14:01:48;25.52;;;18.17;;
14342;SDS011;7255;53.596;9.960;2022-10-31T14:04:18;22.95;;;17.08;;
14342;SDS011;7255;53.596;9.960;2022-10-31T14:06:57;24.50;;;16.35;;
14342;SDS011;7255;53.596;9.960;2022-10-31T14:09:31;22.40;;;16.45;;
14342;SDS011;7255;53.596;9.960;2022-10-31T14:12:02;17.62;;;15.10;;
14342;SDS011;7255;53.596;9.960;2022-10-31T14:14:33;16.65;;;14.30;;
14342;SDS011;7255;53.596;9.960;2022-10-31T14:17:12;17.10;;;13.27;;
14342;SDS011;7255;53.596;9.960;2022-10-31T14:19:55;20.15;;;13.35;;
14342;SDS011;7255;53.596;9.960;2022-10-31T14:22:23;15.43;;;12.52;;
14342;SDS011;7255;53.596;9.960;2022-10-31T14:24:49;18.95;;;14.30;;
14342;SDS011;7255;53.596;9.960;2022-10-31T14:27:43;15.98;;;12.82;;
14342;SDS011;7255;53.596;9.960;2022-10-31T14:30:16;16.77;;;12.85;;
14342;SDS011;7255;53.596;9.960;2022-10-31T14:32:44;17.48;;;13.02;;
14342;SDS011;7255;53.596;9.960;2022-10-31T14:35:16;16.62;;;13.77;;
14342;SDS011;7255;53.596;9.960;2022-10-31T14:38:00;19.12;;;14.75;;
14342;SDS011;7255;53.596;9.960;2022-10-31T14:40:35;22.17;;;14.63;;
14342;SDS011;7255;53.596;9.960;2022-10-31T14:43:16;18.65;;;13.05;;
14342;SDS011;7255;53.596;9.960;2022-10-31T14:45:59;19.98;;;14.13;;
14342;SDS011;7255;53.596;9.960;2022-10-31T14:48:32;18.15;;;13.32;;
14342;SDS011;7255;53.596;9.960;2022-10-31T14:51:09;19.52;;;13.73;;
14342;SDS011;7255;53.596;9.960;2022-10-31T14:53:41;21.60;;;14.85;;
14342;SDS011;7255;53.596;9.960;2022-10-31T14:56:11;17.70;;;13.77;;
14342;SDS011;7255;53.596;9.960;2022-10-31T14:58:41;18.33;;;14.15;;